Time;durP1;ratioP1;P1;durP2;ratioP2;P2;SDS_P1;SDS_P2;PMS_P1;PMS_P2;Temp;Humidity;BMP_temperature;BMP_pressure;BME280_temperature;BME280_humidity;BME280_pressure;Samples;Min_cycle;Max_cycle;Signal;HPM_P1;HPM_P2
2023/07/23 00:00:36;;;;;;;1.75;1.63;;;;;;;30.78;47.93;98738.28;2091456;28;20182;-48
2023/07/23 00:01:38;;;;;;;2.35;1.70;;;;;;;30.80;47.74;98732.56;2090654;28;20275;-49
2023/07/23 00:02:39;;;;;;;2.03;1.80;;;;;;;30.82;47.76;98738.59;2090565;28;20063;-49
2023/07/23 00:03:42;;;;;;;2.75;1.98;;;;;;;30.80;47.70;98738.84;2090800;28;20052;-50
2023/07/23 00:04:43;;;;;;;2.95;2.00;;;;;;;30.79;48.03;98731.72;2089928;28;20167;-48
2023/07/23 00:05:45;;;;;;;2.78;1.60;;;;;;;30.81;47.75;98739.66;2092232;28;20049;-48
2023/07/23 00:06:46;;;;;;;1.98;1.45;;;;;;;30.81;47.46;98740.47;2087814;28;20134;-48
2023/07/23 00:07:48;;;;;;;2.92;2.20;;;;;;;30.78;47.66;98724.59;2091819;28;20074;-50
2023/07/23 00:08:48;;;;;;;2.67;1.80;;;;;;;30.79;47.76;98726.25;2091157;28;20057;-50
2023/07/23 00:09:50;;;;;;;2.65;1.80;;;;;;;30.79;47.89;98726.25;2092399;28;20057;-50
2023/07/23 00:10:56;;;;;;;2.70;2.00;;;;;;;30.77;47.72;98731.16;2091160;28;20049;-48
2023/07/23 00:11:57;;;;;;;3.38;2.13;;;;;;;30.78;47.59;98724.59;2090790;28;20040;-49
2023/07/23 00:12:58;;;;;;;2.53;1.70;;;;;;;30.78;47.86;98713.63;2092342;28;20040;-47
2023/07/23 00:14:00;;;;;;;2.85;2.03;;;;;;;30.78;47.72;98713.63;2089563;28;20045;-50
2023/07/23 00:15:01;;;;;;;3.60;1.98;;;;;;;30.78;47.64;98713.63;2082567;28;20045;-48
2023/07/23 00:16:02;;;;;;;3.03;2.13;;;;;;;30.78;47.41;98721.84;2083030;28;20050;-50
2023/07/23 00:17:04;;;;;;;2.38;1.80;;;;;;;30.79;47.69;98719.94;2081856;28;20056;-47
2023/07/23 00:18:05;;;;;;;2.25;1.80;;;;;;;30.78;47.68;98710.06;2082779;28;20404;-49
2023/07/23 00:19:08;;;;;;;2.72;2.13;;;;;;;30.78;47.54;98718.28;2079129;28;20057;-47
2023/07/23 00:20:12;;;;;;;3.08;2.17;;;;;;;30.77;47.55;98716.66;2080697;28;20144;-49
2023/07/23 00:21:13;;;;;;;2.72;2.15;;;;;;;30.72;47.80;98715.56;2081403;28;20056;-49
2023/07/23 00:22:16;;;;;;;3.60;2.53;;;;;;;30.75;47.76;98711.47;2079925;28;20120;-50
2023/07/23 00:23:16;;;;;;;2.08;1.60;;;;;;;30.75;47.78;98703.25;2081715;28;20074;-48
2023/07/23 00:24:19;;;;;;;3.53;1.88;;;;;;;30.76;47.87;98710.38;2080539;28;20084;-49
2023/07/23 00:25:20;;;;;;;3.03;2.20;;;;;;;30.78;47.98;98701.88;2079611;28;20045;-48
2023/07/23 00:26:22;;;;;;;3.00;1.83;;;;;;;30.76;47.94;98699.44;2078726;28;20472;-49
2023/07/23 00:27:23;;;;;;;1.73;1.60;;;;;;;30.75;47.62;98703.25;2082425;28;20048;-50
2023/07/23 00:28:25;;;;;;;1.80;1.65;;;;;;;30.75;48.09;98702.44;2083142;28;20047;-49
2023/07/23 00:29:25;;;;;;;2.20;2.00;;;;;;;30.75;47.92;98702.44;2081460;28;20040;-49
2023/07/23 00:30:27;;;;;;;2.95;2.20;;;;;;;30.75;48.09;98705.97;2081367;28;20045;-50
2023/07/23 00:31:28;;;;;;;4.80;2.13;;;;;;;30.73;47.96;98703.53;2082469;28;20141;-48
2023/07/23 00:32:29;;;;;;;2.22;1.75;;;;;;;30.75;47.64;98708.72;2082851;28;20047;-50
2023/07/23 00:33:30;;;;;;;2.70;1.80;;;;;;;30.74;47.68;98707.09;2083554;28;20057;-48
2023/07/23 00:34:33;;;;;;;2.83;1.98;;;;;;;30.76;48.01;98704.06;2079435;28;20462;-50
2023/07/23 00:35:35;;;;;;;2.92;1.77;;;;;;;30.75;47.63;98713.38;2082647;28;20065;-51
2023/07/23 00:36:35;;;;;;;2.13;1.75;;;;;;;30.74;48.02;98712.56;2081102;28;20073;-48
2023/07/23 00:37:37;;;;;;;1.98;1.73;;;;;;;30.75;47.63;98705.16;2082499;28;20049;-50
2023/07/23 00:38:38;;;;;;;3.40;2.15;;;;;;;30.74;47.55;98712.56;2083621;28;20097;-50
2023/07/23 00:39:39;;;;;;;2.65;1.60;;;;;;;30.73;47.75;98705.47;2079894;28;20053;-50
2023/07/23 00:40:41;;;;;;;2.40;2.20;;;;;;;30.73;47.93;98711.75;2081810;28;20049;-50
2023/07/23 00:41:41;;;;;;;3.13;2.00;;;;;;;30.74;47.88;98704.34;2083628;28;20053;-48
2023/07/23 00:42:43;;;;;;;3.38;2.28;;;;;;;30.73;47.65;98706.28;2082374;28;20045;-49
2023/07/23 00:43:44;;;;;;;2.45;1.58;;;;;;;30.73;47.58;98706.28;2082487;28;20052;-48
2023/07/23 00:44:45;;;;;;;2.15;1.70;;;;;;;30.72;47.84;98701.88;2080089;28;20038;-49
2023/07/23 00:45:46;;;;;;;2.55;1.60;;;;;;;30.72;47.62;98706.56;2081045;28;20127;-48
2023/07/23 00:46:48;;;;;;;2.92;1.98;;;;;;;30.74;48.08;98701.63;2081951;28;20460;-58
2023/07/23 00:47:49;;;;;;;2.97;2.08;;;;;;;30.73;47.95;98703.53;2082354;28;20058;-51
2023/07/23 00:48:51;;;;;;;2.30;2.10;;;;;;;30.74;47.92;98709.84;2083885;28;20077;-49
2023/07/23 00:49:54;;;;;;;2.85;1.58;;;;;;;30.73;47.65;98711.75;2085916;28;20143;-50
2023/07/23 00:50:55;;;;;;;2.83;2.00;;;;;;;30.73;48.07;98702.72;2080765;28;21008;-50
2023/07/23 00:51:57;;;;;;;2.90;1.77;;;;;;;30.73;47.98;98708.22;2080988;28;20045;-49
2023/07/23 00:52:59;;;;;;;4.10;1.90;;;;;;;30.72;47.91;98701.88;2078716;28;20056;-51
2023/07/23 00:54:00;;;;;;;2.78;1.92;;;;;;;30.75;47.88;98708.72;2083261;28;20057;-51
2023/07/23 00:55:02;;;;;;;2.38;2.17;;;;;;;30.73;47.56;98708.22;2083152;28;20048;-51
2023/07/23 00:56:03;;;;;;;2.20;1.90;;;;;;;30.72;47.55;98709.28;2080755;28;20045;-51
2023/07/23 00:57:05;;;;;;;1.98;1.70;;;;;;;30.72;48.03;98710.09;2080290;28;20049;-50
2023/07/23 00:58:07;;;;;;;4.40;2.05;;;;;;;30.70;47.64;98712.31;2080575;28;20155;-49
2023/07/23 00:59:08;;;;;;;4.57;2.22;;;;;;;30.72;47.55;98712.84;2085303;28;20197;-48
2023/07/23 01:00:11;;;;;;;2.47;2.05;;;;;;;30.71;47.90;98708.47;2089274;28;20491;-48
2023/07/23 01:01:11;;;;;;;2.78;1.83;;;;;;;30.72;48.05;98707.38;2088850;28;20102;-49
2023/07/23 01:02:12;;;;;;;2.35;1.73;;;;;;;30.71;47.70;98705.72;2089927;28;20494;-51
2023/07/23 01:03:14;;;;;;;3.10;2.22;;;;;;;30.70;47.73;98706.00;2090454;28;20068;-48
2023/07/23 01:04:16;;;;;;;1.90;1.73;;;;;;;30.72;47.73;98703.81;2090879;28;20480;-48
2023/07/23 01:05:20;;;;;;;2.90;2.03;;;;;;;30.70;47.64;98701.38;2086482;28;20090;-50
2023/07/23 01:06:22;;;;;;;2.35;1.90;;;;;;;30.71;47.71;98704.94;2086687;28;20070;-48
2023/07/23 01:07:26;;;;;;;2.38;1.85;;;;;;;30.70;48.08;98698.63;2090943;28;20116;-48
2023/07/23 01:08:27;;;;;;;2.70;2.22;;;;;;;30.72;47.99;98709.28;2091773;28;20502;-49
2023/07/23 01:09:29;;;;;;;2.78;1.77;;;;;;;30.71;47.64;98704.94;2089551;28;20045;-50
2023/07/23 01:10:32;;;;;;;3.00;1.70;;;;;;;30.69;48.07;98702.44;2090275;28;20041;-50
2023/07/23 01:11:34;;;;;;;2.00;1.80;;;;;;;30.70;47.62;98706.00;2090202;28;20448;-49
2023/07/23 01:12:37;;;;;;;2.28;1.77;;;;;;;30.69;47.82;98704.38;2088958;28;20045;-51
2023/07/23 01:13:40;;;;;;;3.17;1.85;;;;;;;30.69;47.72;98704.38;2090179;28;20033;-49
2023/07/23 01:14:41;;;;;;;1.83;1.67;;;;;;;30.68;48.04;98709.03;2089897;28;20044;-49
2023/07/23 01:15:42;;;;;;;2.55;2.03;;;;;;;30.68;47.82;98702.75;2087121;28;20048;-51
2023/07/23 01:16:45;;;;;;;2.97;2.05;;;;;;;30.67;47.55;98701.09;2089992;28;20063;-48
2023/07/23 01:17:46;;;;;;;2.17;1.80;;;;;;;30.68;47.67;98705.50;2088270;28;20048;-50
2023/07/23 01:18:49;;;;;;;3.05;2.17;;;;;;;30.68;47.77;98703.56;2086672;28;20513;-48
2023/07/23 01:19:58;;;;;;;2.67;1.92;;;;;;;30.66;47.88;98704.94;2089712;28;20045;-50
2023/07/23 01:21:02;;;;;;;4.85;1.90;;;;;;;30.67;47.93;98699.19;2089641;28;20128;-48
2023/07/23 01:22:06;;;;;;;2.35;2.10;;;;;;;30.67;48.13;98695.63;2089046;28;20080;-49
2023/07/23 01:23:08;;;;;;;4.15;1.92;;;;;;;30.66;47.88;98694.00;2092008;28;20104;-49
2023/07/23 01:24:09;;;;;;;4.30;2.33;;;;;;;30.67;47.61;98701.94;2088397;28;20063;-51
2023/07/23 01:25:11;;;;;;;2.78;2.28;;;;;;;30.65;47.74;98706.06;2091184;28;20063;-48
2023/07/23 01:26:13;;;;;;;2.55;2.05;;;;;;;30.66;47.86;98700.28;2088812;28;20146;-50
2023/07/23 01:27:15;;;;;;;4.97;2.05;;;;;;;30.68;47.90;98710.97;2091992;28;20041;-48
2023/07/23 01:28:16;;;;;;;2.40;1.83;;;;;;;30.63;47.76;98702.78;2088752;28;20503;-50
2023/07/23 01:29:18;;;;;;;3.25;1.80;;;;;;;30.64;48.11;98699.75;2091066;28;20033;-48
2023/07/23 01:30:19;;;;;;;2.30;1.80;;;;;;;30.65;48.05;98704.13;2086501;28;20112;-49
2023/07/23 01:31:20;;;;;;;2.97;1.90;;;;;;;30.65;48.12;98703.31;2088650;28;20041;-48
2023/07/23 01:32:21;;;;;;;2.70;1.88;;;;;;;30.67;48.11;98709.31;2089655;28;20423;-50
2023/07/23 01:33:23;;;;;;;2.90;2.03;;;;;;;30.66;47.90;98713.97;2093043;28;20047;-49
2023/07/23 01:34:25;;;;;;;2.00;1.80;;;;;;;30.66;47.97;98705.75;2090618;28;20091;-48
2023/07/23 01:35:26;;;;;;;2.03;1.60;;;;;;;30.66;47.59;98708.50;2088135;28;20102;-49
2023/07/23 01:36:28;;;;;;;2.38;1.85;;;;;;;30.65;48.02;98703.31;2090426;28;20052;-47
2023/07/23 01:37:30;;;;;;;2.95;2.03;;;;;;;30.65;47.83;98706.06;2090712;28;20518;-50
2023/07/23 01:38:32;;;;;;;2.35;2.03;;;;;;;30.64;47.90;98702.47;2089563;28;20048;-51
2023/07/23 01:39:33;;;;;;;2.15;1.63;;;;;;;30.64;48.21;98712.63;2089259;28;20173;-47
2023/07/23 01:40:36;;;;;;;3.80;2.17;;;;;;;30.64;47.66;98707.13;2087895;28;20053;-47
2023/07/23 01:41:37;;;;;;;3.08;1.63;;;;;;;30.63;47.63;98709.06;2092514;28;20343;-47
2023/07/23 01:42:39;;;;;;;1.92;1.73;;;;;;;30.62;48.25;98707.44;2088725;28;20044;-49
2023/07/23 01:43:40;;;;;;;1.85;1.67;;;;;;;30.63;47.91;98709.06;2089431;28;20072;-49
2023/07/23 01:44:43;;;;;;;4.68;2.28;;;;;;;30.63;47.62;98711.81;2088917;28;20048;-50
2023/07/23 01:45:44;;;;;;;2.20;1.63;;;;;;;30.63;48.02;98711.81;2089419;28;20059;-47
2023/07/23 01:46:46;;;;;;;3.40;1.88;;;;;;;30.64;47.90;98712.63;2090245;28;20041;-49
2023/07/23 01:47:47;;;;;;;4.47;2.08;;;;;;;30.64;48.02;98712.63;2080995;28;20262;-49
2023/07/23 01:48:49;;;;;;;2.75;2.17;;;;;;;30.63;48.14;98705.50;2079132;28;20053;-50
2023/07/23 01:49:49;;;;;;;2.50;1.98;;;;;;;30.64;48.12;98715.34;2082376;28;20296;-50
2023/07/23 01:50:51;;;;;;;2.75;1.77;;;;;;;30.63;48.19;98716.47;2088703;28;20605;-49
2023/07/23 01:51:52;;;;;;;3.50;2.13;;;;;;;30.63;47.78;98716.47;2091263;28;20061;-51
2023/07/23 01:52:55;;;;;;;2.75;1.85;;;;;;;30.64;47.70;98715.34;2088057;28;20052;-47
2023/07/23 01:53:56;;;;;;;3.20;2.08;;;;;;;30.63;47.96;98719.19;2087597;28;20056;-48
2023/07/23 01:54:58;;;;;;;2.45;1.88;;;;;;;30.62;48.03;98715.66;2088824;28;20604;-51
2023/07/23 01:55:59;;;;;;;3.80;1.98;;;;;;;30.62;48.04;98709.31;2089430;28;20060;-47
2023/07/23 01:57:01;;;;;;;2.20;1.98;;;;;;;30.62;47.89;98709.31;2089232;28;20115;-49
2023/07/23 01:58:01;;;;;;;2.30;1.88;;;;;;;30.61;48.20;98711.25;2089116;28;20423;-47
2023/07/23 01:59:04;;;;;;;3.25;2.33;;;;;;;30.61;48.19;98711.25;2091757;28;20064;-49
2023/07/23 02:00:06;;;;;;;3.35;2.10;;;;;;;30.61;48.03;98707.69;2090567;28;20080;-48
2023/07/23 02:01:08;;;;;;;2.05;1.67;;;;;;;30.61;47.71;98711.25;2089440;28;20044;-49
2023/07/23 02:02:10;;;;;;;2.28;1.80;;;;;;;30.61;47.91;98710.44;2088546;28;20048;-48
2023/07/23 02:03:12;;;;;;;2.35;1.90;;;;;;;30.62;47.84;98717.53;2089952;28;20097;-50
2023/07/23 02:04:13;;;;;;;2.17;1.98;;;;;;;30.62;47.77;98714.81;2089843;28;20044;-49
2023/07/23 02:05:17;;;;;;;1.85;1.73;;;;;;;30.61;47.91;98714.00;2092397;28;20040;-48
2023/07/23 02:06:18;;;;;;;2.20;1.73;;;;;;;30.60;47.93;98711.56;2089329;28;20052;-50
2023/07/23 02:07:20;;;;;;;2.60;2.00;;;;;;;30.59;47.81;98716.22;2090519;28;20240;-48
2023/07/23 02:08:22;;;;;;;3.28;2.08;;;;;;;30.60;47.97;98712.38;2089261;28;20052;-48
2023/07/23 02:09:24;;;;;;;2.22;1.75;;;;;;;30.60;47.76;98717.03;2090431;28;20049;-50
2023/07/23 02:10:25;;;;;;;4.38;2.13;;;;;;;30.59;47.72;98716.22;2088883;28;20052;-50
2023/07/23 02:11:26;;;;;;;2.70;1.75;;;;;;;30.60;48.06;98717.84;2088206;28;20120;-49
2023/07/23 02:12:27;;;;;;;2.42;1.77;;;;;;;30.60;47.77;98723.31;2089392;28;20095;-48
2023/07/23 02:13:28;;;;;;;4.10;2.83;;;;;;;30.59;48.14;98720.84;2090945;28;20071;-48
2023/07/23 02:14:30;;;;;;;1.85;1.70;;;;;;;30.59;48.09;98720.84;2089741;28;20044;-48
2023/07/23 02:15:30;;;;;;;3.17;2.08;;;;;;;30.60;47.72;98722.50;2084223;28;20049;-49
2023/07/23 02:16:32;;;;;;;2.70;1.90;;;;;;;30.58;47.92;98719.22;2084365;28;20040;-48
2023/07/23 02:17:33;;;;;;;2.25;1.70;;;;;;;30.59;47.79;98715.38;2079248;28;20052;-49
2023/07/23 02:18:34;;;;;;;3.97;1.98;;;;;;;30.59;47.94;98716.22;2080541;28;20491;-47
2023/07/23 02:19:36;;;;;;;3.08;1.80;;;;;;;30.58;47.89;98714.56;2083135;28;20075;-50
2023/07/23 02:20:38;;;;;;;4.72;1.90;;;;;;;30.58;48.15;98719.22;2082064;28;20107;-50
2023/07/23 02:21:39;;;;;;;2.17;1.90;;;;;;;30.58;47.74;98724.69;2082092;28;20063;-51
2023/07/23 02:22:41;;;;;;;2.47;1.85;;;;;;;30.59;48.13;98720.84;2081455;28;20467;-51
2023/07/23 02:23:43;;;;;;;3.30;2.63;;;;;;;30.57;48.06;98717.59;2082144;28;20073;-48
2023/07/23 02:24:45;;;;;;;2.20;1.83;;;;;;;30.58;48.06;98724.69;2082520;28;20055;-49
2023/07/23 02:25:47;;;;;;;2.95;1.88;;;;;;;30.55;47.76;98719.78;2081157;28;20339;-48
2023/07/23 02:26:49;;;;;;;3.85;2.03;;;;;;;30.58;47.77;98727.44;2079190;28;20046;-48
2023/07/23 02:27:50;;;;;;;2.65;2.17;;;;;;;30.56;47.87;98721.41;2078301;28;20460;-48
2023/07/23 02:28:52;;;;;;;4.03;2.40;;;;;;;30.56;48.02;98718.66;2080757;28;20626;-49
2023/07/23 02:29:52;;;;;;;2.47;2.28;;;;;;;30.56;47.92;98718.66;2082168;28;20470;-48
2023/07/23 02:30:58;;;;;;;2.03;1.70;;;;;;;30.58;47.72;98719.22;2078178;28;20061;-50
2023/07/23 02:31:59;;;;;;;3.75;2.58;;;;;;;30.57;47.83;98723.06;2081466;28;20053;-49
2023/07/23 02:33:00;;;;;;;2.97;2.33;;;;;;;30.58;47.82;98727.44;2079381;28;20052;-50
2023/07/23 02:34:01;;;;;;;2.30;1.90;;;;;;;30.56;48.25;98726.88;2081792;28;20083;-50
2023/07/23 02:35:03;;;;;;;2.80;1.92;;;;;;;30.56;47.75;98721.41;2079784;28;20053;-49
2023/07/23 02:36:05;;;;;;;2.03;1.30;;;;;;;30.59;47.77;98718.09;2083282;28;20037;-47
2023/07/23 02:37:07;;;;;;;2.35;1.90;;;;;;;30.56;48.11;98721.41;2083635;28;20069;-47
2023/07/23 02:38:07;;;;;;;3.17;1.88;;;;;;;30.56;47.92;98726.88;2082767;28;20098;-47
2023/07/23 02:39:10;;;;;;;2.83;1.98;;;;;;;30.56;48.13;98724.97;2079018;28;20049;-47
2023/07/23 02:40:12;;;;;;;3.42;2.10;;;;;;;30.56;47.94;98733.16;2078339;28;20072;-49
2023/07/23 02:41:14;;;;;;;4.07;2.00;;;;;;;30.55;47.77;98728.81;2080645;28;20061;-47
2023/07/23 02:42:14;;;;;;;2.55;1.83;;;;;;;30.55;47.86;98731.53;2081427;28;20698;-48
2023/07/23 02:43:16;;;;;;;3.53;2.00;;;;;;;30.54;48.00;98727.19;2079565;28;20138;-48
2023/07/23 02:44:17;;;;;;;2.30;2.05;;;;;;;30.56;48.20;98729.63;2078729;28;20136;-47
2023/07/23 02:45:18;;;;;;;1.90;1.60;;;;;;;30.54;47.91;98727.19;2079606;28;20509;-48
2023/07/23 02:46:19;;;;;;;3.08;1.90;;;;;;;30.55;48.23;98731.53;2082010;28;20048;-50
2023/07/23 02:47:21;;;;;;;2.13;1.60;;;;;;;30.56;48.20;98732.34;2081692;28;20056;-50
2023/07/23 02:48:22;;;;;;;1.83;1.58;;;;;;;30.54;47.88;98734.56;2083738;28;20036;-50
2023/07/23 02:49:23;;;;;;;3.53;2.10;;;;;;;30.56;47.95;98732.34;2083603;28;20558;-50
2023/07/23 02:50:25;;;;;;;4.10;2.25;;;;;;;30.55;47.79;98738.94;2080535;28;20068;-49
2023/07/23 02:51:27;;;;;;;3.55;2.42;;;;;;;30.54;47.95;98742.78;2080387;28;20783;-50
2023/07/23 02:52:28;;;;;;;3.15;1.92;;;;;;;30.53;47.74;98738.41;2081268;28;20238;-49
2023/07/23 02:53:30;;;;;;;3.22;2.00;;;;;;;30.54;47.74;98746.34;2081832;28;20430;-48
2023/07/23 02:54:33;;;;;;;2.67;1.50;;;;;;;30.54;47.97;98742.78;2080858;28;20499;-48
2023/07/23 02:55:35;;;;;;;2.90;2.08;;;;;;;30.53;47.84;98744.69;2081570;28;20053;-48
2023/07/23 02:56:35;;;;;;;2.22;1.85;;;;;;;30.53;48.16;98741.13;2080554;28;20480;-49
2023/07/23 02:57:36;;;;;;;2.80;1.38;;;;;;;30.53;48.05;98741.94;2076080;28;20056;-48
2023/07/23 02:58:38;;;;;;;1.67;1.50;;;;;;;30.52;48.23;98747.72;2077726;28;21487;-51
2023/07/23 02:59:39;;;;;;;2.58;1.95;;;;;;;30.50;47.89;98735.09;2081595;28;20037;-50
2023/07/23 03:00:41;;;;;;;3.80;2.30;;;;;;;30.53;48.08;98741.13;2080724;28;20499;-49
2023/07/23 03:01:41;;;;;;;2.92;2.08;;;;;;;30.52;48.12;98732.09;2078596;28;20057;-52
2023/07/23 03:02:42;;;;;;;2.40;2.00;;;;;;;30.53;47.85;98735.66;2080287;28;20040;-49
2023/07/23 03:03:47;;;;;;;2.45;1.83;;;;;;;30.51;47.79;98741.44;2082389;28;20046;-50
2023/07/23 03:04:48;;;;;;;2.25;1.80;;;;;;;30.49;47.77;98738.97;2080353;28;20056;-51
2023/07/23 03:05:50;;;;;;;2.75;2.00;;;;;;;30.52;47.85;98742.25;2073478;28;20132;-51
2023/07/23 03:06:50;;;;;;;3.00;1.98;;;;;;;30.52;47.92;98732.09;2080320;28;20053;-49
2023/07/23 03:07:52;;;;;;;3.95;1.95;;;;;;;30.52;47.90;98736.78;2082194;28;20079;-50
2023/07/23 03:08:54;;;;;;;2.90;2.30;;;;;;;30.52;47.90;98743.06;2081418;28;20076;-50
2023/07/23 03:09:56;;;;;;;2.20;2.00;;;;;;;30.52;47.89;98737.59;2081703;28;20286;-48
2023/07/23 03:10:57;;;;;;;2.95;1.92;;;;;;;30.53;48.01;98741.13;2079819;28;20084;-48
2023/07/23 03:11:58;;;;;;;3.70;1.88;;;;;;;30.53;47.90;98749.34;2081796;28;20107;-48
2023/07/23 03:12:59;;;;;;;2.40;1.88;;;;;;;30.51;48.25;98746.91;2081857;28;20495;-50
2023/07/23 03:14:01;;;;;;;2.83;2.58;;;;;;;30.50;47.69;98747.97;2079782;28;20155;-49
2023/07/23 03:15:02;;;;;;;3.00;1.83;;;;;;;30.49;48.15;98755.38;2079725;28;20052;-48
2023/07/23 03:16:04;;;;;;;2.20;1.88;;;;;;;30.49;47.99;98749.09;2081822;28;20049;-52
2023/07/23 03:17:05;;;;;;;3.25;2.17;;;;;;;30.49;47.77;98752.66;2079890;28;20455;-48
2023/07/23 03:18:07;;;;;;;2.40;2.00;;;;;;;30.50;48.11;98754.28;2081298;28;20050;-48
2023/07/23 03:19:09;;;;;;;3.05;2.00;;;;;;;30.49;47.98;98758.13;2081759;28;20078;-50
2023/07/23 03:20:12;;;;;;;2.28;1.95;;;;;;;30.46;48.05;98750.47;2084474;28;20053;-51
2023/07/23 03:21:12;;;;;;;1.98;1.65;;;;;;;30.47;47.75;98752.09;2088970;28;20051;-50
2023/07/23 03:22:14;;;;;;;2.30;2.08;;;;;;;30.47;47.98;98752.09;2090425;28;20691;-49
2023/07/23 03:23:15;;;;;;;3.40;2.03;;;;;;;30.46;47.95;98750.47;2088464;28;20536;-48
2023/07/23 03:24:17;;;;;;;2.75;1.95;;;;;;;30.49;47.83;98760.03;2089134;28;20057;-49
2023/07/23 03:25:19;;;;;;;2.25;2.05;;;;;;;30.48;47.84;98753.75;2090195;28;20544;-49
2023/07/23 03:26:21;;;;;;;2.65;2.10;;;;;;;30.48;47.89;98752.94;2087677;28;20040;-51
2023/07/23 03:27:22;;;;;;;2.80;1.90;;;;;;;30.48;47.75;98755.69;2089704;28;20352;-52
2023/07/23 03:28:23;;;;;;;2.35;1.88;;;;;;;30.47;47.85;98756.75;2091444;28;20682;-48
2023/07/23 03:29:24;;;;;;;3.53;2.28;;;;;;;30.47;47.96;98754.84;2087602;28;20040;-50
2023/07/23 03:30:26;;;;;;;2.35;2.15;;;;;;;30.49;48.08;98758.13;2089972;28;20368;-50
2023/07/23 03:31:27;;;;;;;4.10;2.00;;;;;;;30.46;47.95;98755.94;2086942;28;20681;-48
2023/07/23 03:32:28;;;;;;;2.15;1.95;;;;;;;30.47;47.81;98760.31;2087676;28;20044;-49
2023/07/23 03:33:29;;;;;;;2.30;1.55;;;;;;;30.47;48.23;98763.03;2088479;28;20049;-49
2023/07/23 03:34:31;;;;;;;2.53;1.92;;;;;;;30.47;48.22;98768.50;2091253;28;20049;-49
2023/07/23 03:35:32;;;;;;;2.67;1.90;;;;;;;30.47;48.13;98765.78;2088387;28;20068;-48
2023/07/23 03:36:34;;;;;;;2.92;2.13;;;;;;;30.48;48.19;98770.19;2087268;28;20052;-49
2023/07/23 03:37:35;;;;;;;2.22;1.85;;;;;;;30.48;47.95;98764.69;2089620;28;20484;-48
2023/07/23 03:38:37;;;;;;;2.10;1.63;;;;;;;30.46;47.82;98766.88;2087852;28;20189;-47
2023/07/23 03:39:38;;;;;;;2.33;1.85;;;;;;;30.46;48.08;98760.59;2086824;28;20037;-49
2023/07/23 03:40:40;;;;;;;2.72;2.13;;;;;;;30.45;48.23;98757.06;2089759;28;20140;-49
2023/07/23 03:41:42;;;;;;;2.25;1.70;;;;;;;30.46;47.80;98766.88;2090497;28;20056;-49
2023/07/23 03:42:42;;;;;;;3.63;2.03;;;;;;;30.45;48.24;98768.00;2089189;28;20129;-48
2023/07/23 03:43:44;;;;;;;1.88;1.75;;;;;;;30.47;47.99;98763.03;2090350;28;20072;-49
2023/07/23 03:44:45;;;;;;;2.17;1.45;;;;;;;30.45;47.89;98762.53;2087471;28;20519;-49
2023/07/23 03:45:47;;;;;;;2.88;1.80;;;;;;;30.45;48.00;98761.69;2089200;28;20045;-49
2023/07/23 03:47:03;;;;;;;2.40;2.10;;;;;;;30.44;48.15;98763.59;2089520;28;20390;-51
2023/07/23 03:48:07;;;;;;;2.88;1.67;;;;;;;30.45;47.86;98758.94;2091684;28;20048;-49
2023/07/23 03:49:08;;;;;;;3.15;2.10;;;;;;;30.43;47.98;98761.97;2087963;28;20056;-50
2023/07/23 03:50:10;;;;;;;3.65;2.05;;;;;;;30.45;47.99;98759.78;2088221;28;20240;-48
2023/07/23 03:51:11;;;;;;;3.78;1.90;;;;;;;30.45;47.66;98758.94;2085812;28;20064;-49
2023/07/23 03:52:13;;;;;;;2.97;2.33;;;;;;;30.45;48.01;98757.06;2089344;28;20499;-49
2023/07/23 03:53:14;;;;;;;1.60;1.45;;;;;;;30.47;48.05;98762.22;2090836;28;20545;-49
2023/07/23 03:54:16;;;;;;;2.85;2.03;;;;;;;30.46;48.27;98760.59;2088532;28;20064;-49
2023/07/23 03:55:16;;;;;;;3.35;2.03;;;;;;;30.45;48.09;98770.75;2087074;28;20518;-49
2023/07/23 03:56:20;;;;;;;2.58;1.95;;;;;;;30.46;47.81;98766.88;2090282;28;20292;-48
2023/07/23 03:57:20;;;;;;;3.10;1.90;;;;;;;30.44;48.18;98758.13;2089811;28;20069;-49
2023/07/23 03:58:22;;;;;;;4.00;2.47;;;;;;;30.43;48.27;98756.50;2087537;28;20052;-47
2023/07/23 03:59:28;;;;;;;1.77;1.58;;;;;;;30.45;48.21;98762.53;2089416;28;20503;-50
2023/07/23 04:00:30;;;;;;;2.80;1.95;;;;;;;30.45;47.96;98757.06;2089903;28;20178;-49
2023/07/23 04:01:31;;;;;;;3.13;2.17;;;;;;;30.44;47.89;98760.88;2088441;28;20094;-48
2023/07/23 04:02:32;;;;;;;3.70;2.13;;;;;;;30.46;48.05;98761.41;2088520;28;20454;-52
2023/07/23 04:03:33;;;;;;;2.78;1.77;;;;;;;30.45;48.21;98761.69;2087477;28;20559;-51
2023/07/23 04:04:35;;;;;;;2.60;1.63;;;;;;;30.43;47.95;98764.72;2085397;28;20048;-50
2023/07/23 04:05:37;;;;;;;2.35;1.80;;;;;;;30.43;47.74;98766.63;2086331;28;20422;-51
2023/07/23 04:06:38;;;;;;;5.88;2.10;;;;;;;30.44;48.02;98760.06;2085931;28;20055;-52
2023/07/23 04:07:39;;;;;;;2.42;1.88;;;;;;;30.44;47.88;98762.78;2086324;28;20122;-51
2023/07/23 04:08:40;;;;;;;3.45;2.33;;;;;;;30.44;48.02;98762.78;2086645;28;20052;-54
2023/07/23 04:09:42;;;;;;;3.42;1.90;;;;;;;30.44;48.09;98763.59;2086954;28;20044;-53
2023/07/23 04:10:43;;;;;;;2.38;2.17;;;;;;;30.46;48.32;98766.06;2085170;28;20109;-53
2023/07/23 04:11:45;;;;;;;2.05;1.85;;;;;;;30.45;48.11;98764.41;2087142;28;20499;-53
2023/07/23 04:12:48;;;;;;;2.17;1.98;;;;;;;30.45;48.07;98764.41;2088121;28;20048;-52
2023/07/23 04:13:50;;;;;;;1.92;1.73;;;;;;;30.44;47.93;98774.56;2084901;28;20049;-53
2023/07/23 04:14:51;;;;;;;2.10;1.80;;;;;;;30.44;48.24;98771.00;2086547;28;20186;-52
2023/07/23 04:15:53;;;;;;;3.53;2.40;;;;;;;30.43;48.06;98769.38;2086889;28;20427;-51
2023/07/23 04:16:54;;;;;;;2.40;1.95;;;;;;;30.42;47.83;98774.03;2081132;28;20056;-50
2023/07/23 04:17:56;;;;;;;2.22;1.98;;;;;;;30.43;48.15;98772.09;2076869;28;20042;-53
2023/07/23 04:18:57;;;;;;;5.47;2.13;;;;;;;30.43;48.00;98770.19;2079456;28;20072;-50
2023/07/23 04:19:59;;;;;;;3.10;2.22;;;;;;;30.44;48.03;98773.72;2085920;28;20131;-52
2023/07/23 04:21:00;;;;;;;3.75;1.83;;;;;;;30.44;47.79;98771.81;2085558;28;20139;-52
2023/07/23 04:22:00;;;;;;;2.72;1.85;;;;;;;30.43;48.30;98770.19;2084812;28;20634;-54
2023/07/23 04:23:02;;;;;;;2.30;1.80;;;;;;;30.45;48.13;98769.88;2087369;28;20135;-50
2023/07/23 04:24:03;;;;;;;4.47;2.05;;;;;;;30.43;47.91;98767.44;2087065;28;20338;-50
2023/07/23 04:25:07;;;;;;;3.58;2.55;;;;;;;30.44;48.18;98763.59;2084711;28;20151;-52
2023/07/23 04:26:08;;;;;;;3.50;2.25;;;;;;;30.43;48.13;98764.72;2086603;28;20068;-53
2023/07/23 04:27:11;;;;;;;3.15;2.00;;;;;;;30.42;47.76;98760.34;2087036;28;20049;-51
2023/07/23 04:28:12;;;;;;;3.22;1.73;;;;;;;30.42;47.86;98757.63;2086730;28;20056;-53
2023/07/23 04:29:12;;;;;;;3.20;1.98;;;;;;;30.43;48.26;98756.50;2086392;28;20045;-50
2023/07/23 04:30:14;;;;;;;4.13;2.15;;;;;;;30.42;47.96;98760.34;2085749;28;20053;-51
2023/07/23 04:31:15;;;;;;;2.03;1.83;;;;;;;30.41;48.37;98758.69;2088198;28;20049;-53
2023/07/23 04:32:17;;;;;;;3.08;2.38;;;;;;;30.42;48.06;98760.34;2082910;28;20045;-53
2023/07/23 04:33:18;;;;;;;3.00;2.20;;;;;;;30.43;48.09;98761.97;2086987;28;20067;-52
2023/07/23 04:34:19;;;;;;;3.13;1.90;;;;;;;30.43;48.13;98761.16;2085602;28;20044;-53
2023/07/23 04:35:21;;;;;;;3.00;1.95;;;;;;;30.43;47.80;98764.72;2085353;28;20061;-50
2023/07/23 04:36:23;;;;;;;2.60;2.13;;;;;;;30.43;48.18;98756.50;2087249;28;20449;-54
2023/07/23 04:37:23;;;;;;;3.28;2.00;;;;;;;30.43;48.04;98767.44;2087256;28;20292;-53
2023/07/23 04:38:26;;;;;;;3.17;2.03;;;;;;;30.45;48.23;98770.75;2084916;28;20301;-53
2023/07/23 04:39:26;;;;;;;3.50;2.20;;;;;;;30.45;48.14;98772.63;2086843;28;20080;-52
2023/07/23 04:40:34;;;;;;;2.42;1.90;;;;;;;30.44;47.93;98769.06;2085193;28;20581;-53
2023/07/23 04:41:34;;;;;;;3.05;2.35;;;;;;;30.43;48.04;98772.09;2084313;28;20151;-53
2023/07/23 04:42:38;;;;;;;3.65;1.98;;;;;;;30.42;48.16;98765.81;2085872;28;20049;-52
2023/07/23 04:43:41;;;;;;;2.67;1.63;;;;;;;30.43;48.01;98764.72;2086431;28;20080;-53
2023/07/23 04:44:42;;;;;;;3.55;1.70;;;;;;;30.43;47.82;98767.44;2085878;28;20505;-51
2023/07/23 04:45:43;;;;;;;2.85;2.03;;;;;;;30.42;48.18;98771.28;2091153;28;20357;-51
2023/07/23 04:46:45;;;;;;;2.78;1.88;;;;;;;30.40;48.18;98768.00;2084738;28;20422;-51
2023/07/23 04:47:46;;;;;;;2.33;2.00;;;;;;;30.41;47.76;98772.38;2087660;28;20537;-50
2023/07/23 04:48:48;;;;;;;2.25;2.00;;;;;;;30.43;47.75;98766.63;2087993;28;20048;-53
2023/07/23 04:49:48;;;;;;;2.53;1.52;;;;;;;30.45;47.85;98773.47;2086076;28;20118;-50
2023/07/23 04:50:56;;;;;;;2.65;2.10;;;;;;;30.43;47.75;98777.59;2087381;28;20449;-51